createdAt,value
2019-05-22T00:04:40.447Z,92.01
2019-05-22T00:10:47.032Z,91.20
2019-05-22T00:16:52.188Z,91.49
2019-05-22T00:22:58.074Z,91.04
2019-05-22T00:29:03.955Z,90.54
2019-05-22T00:35:10.448Z,90.15
2019-05-22T00:41:18.222Z,88.70
2019-05-22T00:47:25.719Z,86.66
2019-05-22T00:53:45.084Z,85.80
2019-05-22T00:59:54.413Z,87.50
2019-05-22T01:05:59.896Z,87.52
2019-05-22T01:12:06.173Z,87.34
2019-05-22T01:18:12.398Z,88.27
2019-05-22T01:24:17.231Z,88.30
2019-05-22T01:30:41.650Z,88.17
2019-05-22T01:36:48.288Z,88.92
2019-05-22T01:42:54.589Z,88.75
2019-05-22T01:49:04.308Z,89.15
2019-05-22T01:55:10.049Z,88.67
2019-05-22T02:01:24.367Z,88.86
2019-05-22T02:07:29.356Z,89.13
2019-05-22T02:13:40.595Z,89.73
2019-05-22T02:19:46.182Z,89.36
2019-05-22T02:25:52.377Z,87.93
2019-05-22T02:31:58.530Z,88.27
2019-05-22T02:38:04.363Z,87.58
2019-05-22T02:44:09.472Z,88.39
2019-05-22T02:50:15.140Z,88.00
2019-05-22T02:56:20.524Z,87.72
2019-05-22T03:02:26.625Z,87.74
2019-05-22T03:08:58.625Z,87.91
2019-05-22T03:15:05.275Z,85.88
2019-05-22T03:21:09.995Z,85.89
2019-05-22T03:27:16.545Z,87.48
2019-05-22T03:33:21.666Z,87.63
2019-05-22T03:39:27.174Z,88.82
2019-05-22T03:45:32.922Z,88.70
2019-05-22T03:51:38.567Z,89.07
2019-05-22T03:57:45.599Z,90.50
2019-05-22T04:03:50.554Z,90.04
2019-05-22T04:09:55.528Z,90.87
2019-05-22T04:16:02.334Z,91.67
2019-05-22T04:22:07.427Z,91.49
2019-05-22T04:28:12.017Z,90.64
2019-05-22T04:34:18.053Z,90.60
2019-05-22T04:40:28.962Z,90.60
2019-05-22T04:46:34.277Z,89.49
2019-05-22T04:52:39.489Z,89.39
2019-05-22T04:58:44.466Z,89.18
2019-05-22T05:04:50.406Z,90.76
2019-05-22T05:10:56.196Z,91.22
2019-05-22T05:17:01.393Z,91.57
2019-05-22T05:23:06.054Z,90.92
2019-05-22T05:29:26.732Z,91.54
2019-05-22T05:35:32.764Z,91.45
2019-05-22T05:41:37.411Z,91.04
2019-05-22T05:47:42.458Z,91.51
2019-05-22T05:54:06.176Z,91.58
2019-05-22T06:00:19.834Z,91.41
2019-05-22T06:06:30.755Z,91.83
2019-05-22T06:12:36.394Z,92.25
2019-05-22T06:18:42.761Z,91.61
2019-05-22T06:25:03.018Z,91.96
2019-05-22T06:31:11.702Z,92.23
2019-05-22T06:37:52.171Z,91.52
2019-05-22T06:44:28.658Z,91.13
2019-05-22T06:50:33.269Z,90.56
2019-05-22T06:56:38.200Z,89.91
2019-05-22T07:02:43.207Z,90.96
2019-05-22T07:08:48.465Z,92.18
2019-05-22T07:15:11.441Z,92.82
2019-05-22T07:21:16.209Z,93.82
2019-05-22T07:27:27.004Z,95.38
2019-05-22T07:33:32.899Z,95.43
2019-05-22T07:39:37.465Z,95.50
2019-05-22T07:45:42.364Z,95.82
2019-05-22T07:51:56.189Z,93.70
2019-05-22T07:58:17.235Z,93.12
2019-05-22T08:04:22.446Z,92.70
2019-05-22T08:10:28.156Z,92.45
2019-05-22T08:16:33.173Z,91.96
2019-05-22T08:22:39.500Z,92.76
2019-05-22T08:28:45.105Z,91.93
2019-05-22T08:34:50.575Z,91.24
2019-05-22T08:40:55.497Z,91.82
2019-05-22T08:47:01.448Z,93.15
2019-05-22T08:53:07.094Z,94.27
2019-05-22T08:59:19.396Z,95.01
2019-05-22T09:05:21.428Z,93.11
2019-05-22T09:11:25.278Z,90.93
2019-05-22T09:17:30.349Z,91.91
2019-05-22T09:23:36.226Z,92.09
2019-05-22T09:29:40.920Z,91.85
2019-05-22T09:35:46.015Z,90.01
2019-05-22T09:41:50.667Z,90.27
2019-05-22T09:47:56.479Z,90.33
2019-05-22T09:54:01.043Z,88.59
2019-05-22T10:00:11.733Z,89.58
2019-05-22T10:06:16.702Z,89.21
2019-05-22T10:12:21.967Z,89.75
2019-05-22T10:18:26.777Z,88.91
2019-05-22T10:24:31.341Z,89.02
2019-05-22T10:30:36.175Z,90.08
2019-05-22T10:36:43.247Z,88.88
2019-05-22T10:42:47.805Z,89.00
2019-05-22T10:48:53.413Z,89.09
2019-05-22T10:54:58.591Z,86.69
2019-05-22T11:01:03.811Z,84.91
2019-05-22T11:07:10.185Z,85.06
2019-05-22T11:13:15.312Z,84.79
2019-05-22T11:19:19.952Z,86.12
2019-05-22T11:25:25.260Z,85.86
2019-05-22T11:31:30.732Z,86.62
2019-05-22T11:37:35.940Z,84.35
2019-05-22T11:43:40.737Z,84.16
2019-05-22T11:49:45.453Z,84.13
2019-05-22T11:55:50.123Z,85.37
2019-05-22T12:01:55.288Z,86.00
2019-05-22T12:08:00.206Z,86.86
2019-05-22T12:14:06.092Z,87.26
2019-05-22T12:20:14.232Z,87.69
2019-05-22T12:26:20.567Z,86.49
2019-05-22T12:32:26.651Z,84.82
2019-05-22T12:38:33.019Z,81.78
2019-05-22T12:44:38.820Z,79.82
2019-05-22T12:50:43.659Z,79.25
2019-05-22T12:56:48.711Z,78.13
2019-05-22T13:02:55.440Z,75.13
2019-05-22T13:09:02.032Z,75.63
2019-05-22T13:15:10.852Z,75.60
2019-05-22T13:21:18.679Z,74.71
2019-05-22T13:27:24.937Z,73.88
2019-05-22T13:33:29.546Z,75.55
2019-05-22T13:39:35.130Z,76.05
2019-05-22T13:45:40.336Z,74.59
2019-05-22T13:51:45.321Z,74.60
2019-05-22T13:57:51.586Z,74.14
2019-05-22T14:03:56.569Z,68.88
2019-05-22T14:10:02.727Z,69.68
2019-05-22T14:16:07.860Z,66.38
2019-05-22T14:22:12.876Z,69.12
2019-05-22T14:28:19.351Z,67.75
2019-05-22T14:34:24.656Z,68.19
2019-05-22T14:40:31.317Z,69.01
2019-05-22T14:46:36.013Z,66.33
2019-05-22T14:52:41.949Z,66.32
2019-05-22T14:58:47.376Z,62.58
2019-05-22T15:04:52.318Z,59.67
2019-05-22T15:10:58.157Z,57.39
2019-05-22T15:17:02.723Z,54.41
2019-05-22T15:23:08.776Z,52.89
2019-05-22T15:29:13.642Z,55.32
2019-05-22T15:35:18.631Z,55.06
2019-05-22T15:41:23.833Z,52.33
2019-05-22T15:47:28.645Z,50.18
2019-05-22T15:53:33.644Z,49.05
2019-05-22T15:59:40.520Z,46.75
2019-05-22T16:05:46.483Z,48.24
2019-05-22T16:11:53.839Z,50.03
2019-05-22T16:18:11.067Z,52.28
2019-05-22T16:24:10.934Z,51.65
2019-05-22T16:30:16.647Z,51.39
2019-05-22T16:36:23.895Z,46.61
2019-05-22T16:42:29.917Z,48.38
2019-05-22T16:48:35.333Z,44.40
2019-05-22T16:54:43.105Z,49.95
2019-05-22T17:00:49.383Z,45.47
2019-05-22T17:06:54.781Z,40.27
2019-05-22T17:13:00.421Z,36.02
2019-05-22T17:19:23.807Z,36.11
2019-05-22T17:25:14.756Z,36.75
2019-05-22T17:31:19.889Z,33.38
2019-05-22T17:37:26.880Z,35.73
2019-05-22T17:43:33.828Z,34.94
2019-05-22T17:49:39.118Z,34.52
2019-05-22T17:55:44.711Z,34.22
2019-05-22T18:01:50.192Z,33.32
2019-05-22T18:07:54.931Z,33.65
2019-05-22T18:14:03.923Z,34.35
2019-05-22T18:20:10.059Z,34.76
2019-05-22T18:26:14.998Z,37.53
2019-05-22T18:32:19.792Z,38.79
2019-05-22T18:38:24.707Z,40.12
2019-05-22T18:44:29.417Z,42.56
2019-05-22T18:50:34.734Z,49.43
2019-05-22T18:56:39.464Z,55.80
2019-05-22T19:02:44.865Z,59.28
2019-05-22T19:08:49.629Z,62.72
2019-05-22T19:14:54.289Z,66.37
2019-05-22T19:20:59.485Z,69.30
2019-05-22T19:27:04.127Z,70.81
2019-05-22T19:33:09.208Z,72.41
2019-05-22T19:39:13.789Z,73.52
2019-05-22T19:45:19.095Z,75.08
2019-05-22T19:51:24.276Z,75.45
2019-05-22T19:57:28.921Z,76.00
2019-05-22T20:03:33.633Z,76.95
2019-05-22T20:09:39.725Z,78.23
2019-05-22T20:15:44.356Z,79.60
2019-05-22T20:21:49.734Z,79.81
2019-05-22T20:27:54.749Z,80.73
2019-05-22T20:33:59.462Z,81.56
2019-05-22T20:40:08.739Z,81.79
2019-05-22T20:46:15.068Z,81.80
2019-05-22T20:52:22.286Z,82.62
2019-05-22T20:58:28.650Z,83.64
2019-05-22T21:04:33.565Z,83.69
2019-05-22T21:10:40.916Z,84.75
2019-05-22T21:16:46.718Z,85.37
2019-05-22T21:22:52.468Z,85.56
2019-05-22T21:28:57.722Z,84.50
2019-05-22T21:35:03.140Z,85.45
2019-05-22T21:41:08.266Z,86.50
2019-05-22T21:47:13.164Z,86.50
2019-05-22T21:53:18.289Z,85.71
2019-05-22T21:59:23.758Z,86.30
2019-05-22T22:05:30.509Z,86.49
2019-05-22T22:11:36.567Z,86.48
2019-05-22T22:17:43.156Z,85.81
2019-05-22T22:23:48.216Z,87.00
2019-05-22T22:29:53.795Z,87.40
2019-05-22T22:35:59.653Z,87.88
2019-05-22T22:42:06.909Z,87.45
2019-05-22T22:48:13.752Z,88.51
2019-05-22T22:54:19.819Z,87.79
2019-05-22T23:00:27.119Z,87.86
2019-05-22T23:06:35.926Z,87.90
2019-05-22T23:12:39.669Z,88.33
2019-05-22T23:18:51.381Z,89.63
2019-05-22T23:24:58.666Z,89.82
2019-05-22T23:31:05.387Z,89.09
2019-05-22T23:37:11.072Z,89.61
2019-05-22T23:43:17.835Z,89.06
2019-05-22T23:49:23.275Z,89.81
2019-05-22T23:55:29.644Z,88.98
